createdAt,value
2022-11-23T00:03:42.492Z,3.62
2022-11-23T00:05:43.940Z,3.62
2022-11-23T00:07:45.079Z,3.61
2022-11-23T00:09:46.274Z,3.61
2022-11-23T00:11:47.596Z,3.62
2022-11-23T00:13:49.212Z,3.61
2022-11-23T00:15:50.477Z,3.62
2022-11-23T00:17:52.012Z,3.61
2022-11-23T00:19:53.127Z,3.62
2022-11-23T00:21:54.373Z,3.61
2022-11-23T00:23:55.897Z,3.62
2022-11-23T00:25:57.376Z,3.61
2022-11-23T00:30:00.586Z,3.61
2022-11-23T00:32:01.690Z,3.61
2022-11-23T00:34:02.930Z,3.61
2022-11-23T00:36:04.795Z,3.61
2022-11-23T00:38:06.201Z,3.61
2022-11-23T00:40:08.222Z,3.61
2022-11-23T00:42:09.197Z,3.61
2022-11-23T00:46:12.241Z,3.61
2022-11-23T00:48:14.183Z,3.61
2022-11-23T00:52:17.545Z,3.61
2022-11-23T00:54:19.094Z,3.61
2022-11-23T00:56:21.151Z,3.61
2022-11-23T00:58:22.567Z,3.61
2022-11-23T01:02:25.376Z,3.61
2022-11-23T01:04:27.234Z,3.61
2022-11-23T01:06:28.634Z,3.61
2022-11-23T01:08:30.328Z,3.61
2022-11-23T01:12:33.567Z,3.61
2022-11-23T01:14:34.882Z,3.61
2022-11-23T01:16:36.270Z,3.61
2022-11-23T01:18:37.749Z,3.61
2022-11-23T01:20:39.247Z,3.61
2022-11-23T01:22:40.566Z,3.61
2022-11-23T01:24:42.152Z,3.61
2022-11-23T01:28:44.994Z,3.61
2022-11-23T01:30:46.619Z,3.61
2022-11-23T01:32:48.038Z,3.61
2022-11-23T01:34:49.659Z,3.61
2022-11-23T01:36:51.024Z,3.61
2022-11-23T01:38:52.472Z,3.61
2022-11-23T01:40:54.190Z,3.61
2022-11-23T01:44:57.249Z,3.61
2022-11-23T01:46:58.875Z,3.61
2022-11-23T01:49:00.777Z,3.61
2022-11-23T01:51:02.071Z,3.61
2022-11-23T01:53:03.280Z,3.61
2022-11-23T01:55:08.392Z,3.61
2022-11-23T01:57:05.542Z,3.61
2022-11-23T01:59:07.562Z,3.61
2022-11-23T02:01:08.880Z,3.61
2022-11-23T02:03:10.354Z,3.61
2022-11-23T02:05:11.471Z,3.61
2022-11-23T02:07:12.893Z,3.61
2022-11-23T02:11:15.482Z,3.6
2022-11-23T02:13:16.795Z,3.6
2022-11-23T02:17:19.162Z,3.6
2022-11-23T02:19:20.195Z,3.61
2022-11-23T02:21:21.634Z,3.61
2022-11-23T02:23:22.715Z,3.61
2022-11-23T02:25:23.823Z,3.6
2022-11-23T02:27:24.856Z,3.61
2022-11-23T02:29:26.625Z,3.6
2022-11-23T02:33:28.889Z,3.6
2022-11-23T02:35:30.762Z,3.6
2022-11-23T02:37:32.376Z,3.6
2022-11-23T02:39:33.831Z,3.6
2022-11-23T02:43:36.629Z,3.6
2022-11-23T02:45:38.280Z,3.6
2022-11-23T02:49:41.402Z,3.6
2022-11-23T02:51:42.525Z,3.6
2022-11-23T02:53:44.515Z,3.6
2022-11-23T02:55:46.370Z,3.61
2022-11-23T02:59:49.805Z,3.61
2022-11-23T03:01:51.396Z,3.61
2022-11-23T03:03:53.358Z,3.6
2022-11-23T03:05:54.819Z,3.6
2022-11-23T03:07:56.214Z,3.6
2022-11-23T03:09:57.466Z,3.6
2022-11-23T03:11:59.429Z,3.61
2022-11-23T03:16:02.801Z,3.6
2022-11-23T03:18:04.746Z,3.6
2022-11-23T03:20:06.731Z,3.61
2022-11-23T03:22:08.312Z,3.61
2022-11-23T03:26:13.014Z,3.6
2022-11-23T03:28:13.170Z,3.6
2022-11-23T03:30:14.780Z,3.6
2022-11-23T03:32:16.704Z,3.6
2022-11-23T03:34:18.415Z,3.6
2022-11-23T03:36:19.575Z,3.6
2022-11-23T03:38:21.183Z,3.6
2022-11-23T03:42:24.564Z,3.6
2022-11-23T03:44:26.002Z,3.6
2022-11-23T03:46:27.062Z,3.6
2022-11-23T03:48:28.836Z,3.6
2022-11-23T03:50:30.038Z,3.6
2022-11-23T03:52:31.659Z,3.6
2022-11-23T03:54:32.864Z,3.6
2022-11-23T03:58:35.620Z,3.6
2022-11-23T04:00:36.943Z,3.6
2022-11-23T04:02:38.594Z,3.6
2022-11-23T04:04:40.326Z,3.6
2022-11-23T04:08:44.202Z,3.6
2022-11-23T04:10:45.397Z,3.6
2022-11-23T04:14:48.185Z,3.6
2022-11-23T04:16:50.192Z,3.6
2022-11-23T04:18:51.516Z,3.6
2022-11-23T04:20:53.479Z,3.6
2022-11-23T04:24:57.489Z,3.6
2022-11-23T04:26:59.295Z,3.6
2022-11-23T04:29:00.805Z,3.6
2022-11-23T04:31:02.925Z,3.6
2022-11-23T04:33:04.021Z,3.6
2022-11-23T04:35:05.546Z,3.6
2022-11-23T04:37:11.779Z,3.6
2022-11-23T04:41:10.049Z,3.6
2022-11-23T04:43:11.636Z,3.6
2022-11-23T04:45:13.365Z,3.6
2022-11-23T04:47:14.689Z,3.6
2022-11-23T04:47:58.614Z,3.6
2022-11-23T04:49:59.843Z,3.6
2022-11-23T04:52:01.730Z,3.6
2022-11-23T04:54:03.115Z,3.6
2022-11-23T04:56:04.717Z,3.6
2022-11-23T04:58:06.435Z,3.6
2022-11-23T05:02:09.248Z,3.6
2022-11-23T05:04:14.898Z,3.6
2022-11-23T05:06:13.091Z,3.6
2022-11-23T05:08:14.556Z,3.6
2022-11-23T05:10:16.602Z,3.6
2022-11-23T05:12:18.047Z,3.6
2022-11-23T05:14:19.496Z,3.6
2022-11-23T05:18:22.428Z,3.6
2022-11-23T05:20:23.816Z,3.6
2022-11-23T05:22:24.846Z,3.6
2022-11-23T05:24:26.280Z,3.6
2022-11-23T05:28:39.956Z,3.6
2022-11-23T05:30:31.099Z,3.6
2022-11-23T05:32:32.455Z,3.6
2022-11-23T05:34:33.772Z,3.6
2022-11-23T05:36:37.458Z,3.6
2022-11-23T05:38:36.492Z,3.6
2022-11-23T05:40:38.005Z,3.6
2022-11-23T05:42:39.997Z,3.6
2022-11-23T05:44:41.711Z,3.6
2022-11-23T05:46:42.848Z,3.6
2022-11-23T05:50:45.909Z,3.6
2022-11-23T05:52:47.602Z,3.6
2022-11-23T05:54:49.114Z,3.6
2022-11-23T05:56:50.753Z,3.6
2022-11-23T06:00:53.936Z,3.6
2022-11-23T06:02:55.847Z,3.6
2022-11-23T06:04:57.461Z,3.6
2022-11-23T06:06:59.038Z,3.6
2022-11-23T06:11:02.515Z,3.6
2022-11-23T06:13:04.054Z,3.6
2022-11-23T06:15:05.980Z,3.6
2022-11-23T06:17:07.641Z,3.6
2022-11-23T06:19:09.628Z,3.6
2022-11-23T06:21:10.684Z,3.6
2022-11-23T06:23:12.494Z,3.6
2022-11-23T06:27:17.875Z,3.6
2022-11-23T06:29:16.122Z,3.6
2022-11-23T06:33:20.091Z,3.6
2022-11-23T06:35:21.440Z,3.6
2022-11-23T06:37:23.006Z,3.6
2022-11-23T06:39:24.023Z,3.6
2022-11-23T06:43:26.590Z,3.6
2022-11-23T06:45:27.615Z,3.6
2022-11-23T06:47:29.351Z,3.6
2022-11-23T06:49:31.377Z,3.6
2022-11-23T06:53:34.362Z,3.6
2022-11-23T06:55:35.577Z,3.6
2022-11-23T06:59:41.917Z,3.6
2022-11-23T07:01:39.277Z,3.6
2022-11-23T07:03:41.239Z,3.6
2022-11-23T07:05:43.047Z,3.6
2022-11-23T07:09:46.306Z,3.6
2022-11-23T07:11:47.802Z,3.6
2022-11-23T07:13:49.256Z,3.6
2022-11-23T07:15:50.697Z,3.6
2022-11-23T07:17:51.891Z,3.6
2022-11-23T07:19:53.531Z,3.6
2022-11-23T07:21:54.642Z,3.6
2022-11-23T07:25:57.299Z,3.59
2022-11-23T07:27:59.117Z,3.6
2022-11-23T07:30:00.787Z,3.6
2022-11-23T07:32:02.557Z,3.6
2022-11-23T07:34:04.056Z,3.6
2022-11-23T07:36:05.531Z,3.6
2022-11-23T07:38:07.213Z,3.6
2022-11-23T07:42:31.465Z,3.6
2022-11-23T07:44:11.616Z,3.6
2022-11-23T07:46:12.772Z,3.6
2022-11-23T07:48:14.077Z,3.6
2022-11-23T07:52:17.447Z,3.6
2022-11-23T07:54:23.411Z,3.59
2022-11-23T07:56:20.547Z,3.6
2022-11-23T07:58:21.787Z,3.6
2022-11-23T08:00:23.406Z,3.6
2022-11-23T08:02:24.998Z,3.59
2022-11-23T08:04:25.984Z,3.6
2022-11-23T08:08:29.502Z,3.6
2022-11-23T08:10:30.496Z,3.6
2022-11-23T08:12:32.119Z,3.6
2022-11-23T08:14:33.416Z,3.6
2022-11-23T08:16:34.209Z,3.6
2022-11-23T08:18:35.905Z,3.6
2022-11-23T08:20:37.743Z,3.6
2022-11-23T08:24:40.284Z,3.6
2022-11-23T08:26:42.238Z,3.6
2022-11-23T08:28:44.141Z,3.6
2022-11-23T08:30:45.697Z,3.6
2022-11-23T08:34:48.553Z,3.6
2022-11-23T08:36:50.180Z,3.6
2022-11-23T08:40:53.198Z,3.6
2022-11-23T08:42:54.969Z,3.61
2022-11-23T08:44:56.183Z,3.61
2022-11-23T08:46:57.545Z,3.62
2022-11-23T08:51:00.968Z,3.62
2022-11-23T08:53:02.493Z,3.62
2022-11-23T08:57:05.604Z,3.62
2022-11-23T08:59:06.998Z,3.62
2022-11-23T09:01:08.865Z,3.62
2022-11-23T09:03:10.495Z,3.62
2022-11-23T09:07:13.763Z,3.63
2022-11-23T09:09:15.234Z,3.64
2022-11-23T09:11:16.362Z,3.64
2022-11-23T09:13:18.248Z,3.64
2022-11-23T09:17:20.665Z,3.64
2022-11-23T09:19:21.976Z,3.64
2022-11-23T09:21:22.946Z,3.65
2022-11-23T09:23:24.704Z,3.66
2022-11-23T09:25:25.788Z,3.66
2022-11-23T09:27:26.947Z,3.66
2022-11-23T09:29:28.422Z,3.66
2022-11-23T09:33:31.547Z,3.66
2022-11-23T09:35:33.861Z,3.66
2022-11-23T09:39:36.339Z,3.67
2022-11-23T09:41:37.925Z,3.68
2022-11-23T09:43:39.366Z,3.66
2022-11-23T09:45:40.587Z,3.68
2022-11-23T09:49:43.738Z,3.66
2022-11-23T09:51:44.762Z,3.68
2022-11-23T09:53:45.876Z,3.68
2022-11-23T09:55:47.451Z,3.68
2022-11-23T09:59:49.426Z,3.68
2022-11-23T10:01:51.179Z,3.66
2022-11-23T10:03:52.844Z,3.68
2022-11-23T10:05:54.434Z,3.67
2022-11-23T10:07:56.000Z,3.69
2022-11-23T10:09:56.880Z,3.69
2022-11-23T10:11:57.834Z,3.69
2022-11-23T10:16:00.031Z,3.68
2022-11-23T10:18:01.567Z,3.68
2022-11-23T10:20:03.261Z,3.68
2022-11-23T10:22:04.449Z,3.69
2022-11-23T10:24:06.544Z,3.68
2022-11-23T10:26:07.586Z,3.68
2022-11-23T10:28:08.950Z,3.7
2022-11-23T10:32:11.447Z,3.71
2022-11-23T10:34:13.161Z,3.7
2022-11-23T10:36:14.728Z,3.69
2022-11-23T10:38:18.954Z,3.69
2022-11-23T10:40:17.842Z,3.69
2022-11-23T10:42:20.286Z,3.69
2022-11-23T10:44:22.087Z,3.71
2022-11-23T10:48:25.191Z,3.7
2022-11-23T10:50:26.527Z,3.7
2022-11-23T10:52:27.785Z,3.71
2022-11-23T10:54:29.747Z,3.72
2022-11-23T10:58:31.984Z,3.72
2022-11-23T11:00:33.132Z,3.72
2022-11-23T11:04:36.420Z,3.72
2022-11-23T11:06:38.013Z,3.73
2022-11-23T11:08:40.332Z,3.73
2022-11-23T11:10:41.894Z,3.73
2022-11-23T11:14:44.926Z,3.73
2022-11-23T11:16:47.589Z,3.74
2022-11-23T11:18:46.190Z,3.74
2022-11-23T11:20:47.370Z,3.74
2022-11-23T11:22:48.686Z,3.74
2022-11-23T11:24:49.666Z,3.75
2022-11-23T11:26:51.039Z,3.75
2022-11-23T11:30:53.727Z,3.75
2022-11-23T11:32:55.416Z,3.76
2022-11-23T11:35:40.715Z,3.76
2022-11-23T11:37:42.108Z,3.76
2022-11-23T11:39:43.748Z,3.76
2022-11-23T11:41:44.558Z,3.77
2022-11-23T11:43:45.521Z,3.77
2022-11-23T11:46:06.370Z,3.78
2022-11-23T11:47:47.638Z,3.78
2022-11-23T11:51:50.166Z,3.78
2022-11-23T11:53:52.716Z,3.79
2022-11-23T11:57:55.478Z,3.79
2022-11-23T11:59:57.761Z,3.79
2022-11-23T12:01:58.831Z,3.8
2022-11-23T12:04:00.634Z,3.8
2022-11-23T12:08:03.067Z,3.8
2022-11-23T12:10:03.942Z,3.81
2022-11-23T12:12:05.301Z,3.8
2022-11-23T12:14:06.914Z,3.81
2022-11-23T12:18:11.642Z,3.81
2022-11-23T12:20:11.132Z,3.82
2022-11-23T12:24:13.949Z,3.82
2022-11-23T12:26:15.777Z,3.82
2022-11-23T12:28:17.566Z,3.82
2022-11-23T12:30:18.564Z,3.83
2022-11-23T12:34:20.865Z,3.83
2022-11-23T12:36:23.543Z,3.84
2022-11-23T12:38:23.093Z,3.84
2022-11-23T12:40:24.099Z,3.84
2022-11-23T12:42:25.035Z,3.84
2022-11-23T12:44:26.739Z,3.85
2022-11-23T12:46:28.130Z,3.85
2022-11-23T12:50:30.904Z,3.82
2022-11-23T12:52:32.566Z,3.86
2022-11-23T12:54:34.387Z,3.84
2022-11-23T12:56:35.222Z,3.86
2022-11-23T12:58:37.503Z,3.86
2022-11-23T13:00:39.040Z,3.86
2022-11-23T13:02:40.544Z,3.86
2022-11-23T13:06:53.997Z,3.87
2022-11-23T13:08:44.158Z,3.88
2022-11-23T13:10:45.344Z,3.88
2022-11-23T13:12:46.756Z,3.88
2022-11-23T13:16:49.570Z,3.89
2022-11-23T13:18:50.863Z,3.89
2022-11-23T13:22:53.686Z,3.9
2022-11-23T13:24:55.461Z,3.9
2022-11-23T13:26:56.764Z,3.9
2022-11-23T13:28:57.709Z,3.9
2022-11-23T13:32:59.830Z,3.91
2022-11-23T13:35:00.698Z,3.91
2022-11-23T13:39:03.239Z,3.92
2022-11-23T13:41:04.375Z,3.92
2022-11-23T13:43:05.431Z,3.92
2022-11-23T13:45:07.257Z,3.92
2022-11-23T13:49:10.573Z,3.93
2022-11-23T13:51:11.538Z,3.93
2022-11-23T13:53:12.940Z,3.94
2022-11-23T13:55:14.006Z,3.94
2022-11-23T13:59:16.801Z,3.94
2022-11-23T14:01:17.920Z,3.95
2022-11-23T14:03:19.753Z,3.95
2022-11-23T14:05:20.950Z,3.95
2022-11-23T14:07:21.887Z,3.96
2022-11-23T14:09:23.230Z,3.96
2022-11-23T14:11:25.048Z,3.96
2022-11-23T14:15:27.711Z,3.97
2022-11-23T14:17:28.974Z,3.97
2022-11-23T14:19:30.536Z,3.94
2022-11-23T14:21:31.544Z,3.93
2022-11-23T14:23:33.218Z,3.93
2022-11-23T14:25:34.207Z,3.93
2022-11-23T14:27:46.587Z,3.92
2022-11-23T14:31:37.226Z,3.93
2022-11-23T14:33:38.607Z,3.93
2022-11-23T14:35:40.217Z,3.93
2022-11-23T14:37:42.090Z,3.93
2022-11-23T14:39:43.103Z,3.92
2022-11-23T14:41:44.834Z,3.92
2022-11-23T14:43:46.484Z,3.92
2022-11-23T14:47:48.940Z,3.92
2022-11-23T14:49:50.383Z,3.92
2022-11-23T14:51:52.240Z,3.92
2022-11-23T14:53:53.701Z,3.92
2022-11-23T14:57:56.925Z,3.92
2022-11-23T14:59:58.708Z,3.92
2022-11-23T15:04:01.739Z,3.92
2022-11-23T15:06:03.078Z,3.92
2022-11-23T15:08:04.757Z,3.92
2022-11-23T15:10:06.200Z,3.92
2022-11-23T15:14:08.729Z,3.92
2022-11-23T15:16:09.982Z,3.92
2022-11-23T15:18:11.498Z,3.91
2022-11-23T15:20:12.844Z,3.91
2022-11-23T15:22:14.338Z,3.91
2022-11-23T15:24:15.364Z,3.92
2022-11-23T15:26:28.806Z,3.91
2022-11-23T15:30:19.313Z,3.91
2022-11-23T15:32:31.098Z,3.92
2022-11-23T15:34:22.998Z,3.91
2022-11-23T15:36:24.171Z,3.91
2022-11-23T15:40:26.445Z,3.91
2022-11-23T15:42:27.828Z,3.91
2022-11-23T15:44:29.529Z,3.91
2022-11-23T15:46:30.680Z,3.91
2022-11-23T15:48:31.947Z,3.91
2022-11-23T15:50:34.317Z,3.91
2022-11-23T15:52:35.098Z,3.91
2022-11-23T15:56:37.158Z,3.91
2022-11-23T15:58:38.951Z,3.91
2022-11-23T16:02:42.802Z,3.9
2022-11-23T16:04:44.257Z,3.91
2022-11-23T16:06:46.033Z,3.91
2022-11-23T16:08:47.185Z,3.91
2022-11-23T16:12:50.199Z,3.91
2022-11-23T16:14:51.850Z,3.91
2022-11-23T16:16:53.524Z,3.9
2022-11-23T16:18:54.932Z,3.9
2022-11-23T16:22:58.083Z,3.9
2022-11-23T16:24:59.110Z,3.9
2022-11-23T16:27:00.297Z,3.9
2022-11-23T16:29:01.486Z,3.9
2022-11-23T16:31:03.456Z,3.9
2022-11-23T16:33:04.500Z,3.9
2022-11-23T16:35:05.982Z,3.9
2022-11-23T16:39:08.960Z,3.9
2022-11-23T16:41:10.314Z,3.9
2022-11-23T16:43:11.525Z,3.9
2022-11-23T16:45:13.308Z,3.9
2022-11-23T16:47:14.368Z,3.9
2022-11-23T16:49:15.856Z,3.9
2022-11-23T16:51:16.936Z,3.9
2022-11-23T16:55:20.786Z,3.9
2022-11-23T16:57:22.445Z,3.9
2022-11-23T16:59:24.329Z,3.9
2022-11-23T17:01:26.262Z,3.9
2022-11-23T17:05:29.353Z,3.9
2022-11-23T17:07:31.348Z,3.9
2022-11-23T17:11:33.514Z,3.9
2022-11-23T17:13:35.187Z,3.9
2022-11-23T17:15:37.191Z,3.9
2022-11-23T17:17:38.714Z,3.89
2022-11-23T17:21:41.667Z,3.9
2022-11-23T17:23:43.452Z,3.9
2022-11-23T17:25:45.038Z,3.9
2022-11-23T17:27:46.842Z,3.89
2022-11-23T17:29:48.210Z,3.89
2022-11-23T17:31:49.541Z,3.9
2022-11-23T17:33:50.559Z,3.89
2022-11-23T17:37:53.369Z,3.89
2022-11-23T17:39:55.097Z,3.89
2022-11-23T17:42:01.517Z,3.89
2022-11-23T17:43:58.481Z,3.89
2022-11-23T17:45:59.983Z,3.89
2022-11-23T17:48:03.444Z,3.89
2022-11-23T17:50:02.515Z,3.89
2022-11-23T17:54:05.610Z,3.89
2022-11-23T17:56:07.547Z,3.89
2022-11-23T17:58:09.323Z,3.89
2022-11-23T18:00:11.296Z,3.89
2022-11-23T18:04:13.973Z,3.89
2022-11-23T18:06:15.485Z,3.89
2022-11-23T18:08:16.642Z,3.89
2022-11-23T18:10:18.278Z,3.89
2022-11-23T18:12:19.957Z,3.88
2022-11-23T18:14:21.553Z,3.89
2022-11-23T18:16:22.798Z,3.89
2022-11-23T18:19:08.531Z,3.89
2022-11-23T18:21:09.876Z,3.89
2022-11-23T18:23:10.965Z,3.89
2022-11-23T18:25:12.867Z,3.88
2022-11-23T18:27:14.798Z,3.89
2022-11-23T18:31:17.049Z,3.88
2022-11-23T18:33:18.134Z,3.89
2022-11-23T18:35:19.522Z,3.88
2022-11-23T18:37:21.247Z,3.88
2022-11-23T18:41:24.183Z,3.88
2022-11-23T18:43:25.753Z,3.88
2022-11-23T18:47:28.918Z,3.88
2022-11-23T18:49:30.936Z,3.88
2022-11-23T18:51:31.705Z,3.88
2022-11-23T18:53:32.907Z,3.88
2022-11-23T18:57:35.315Z,3.88
2022-11-23T18:59:57.239Z,3.88
2022-11-23T19:01:37.684Z,3.88
2022-11-23T19:03:39.399Z,3.88
2022-11-23T19:05:41.084Z,3.88
2022-11-23T19:07:42.148Z,3.88
2022-11-23T19:09:43.161Z,3.88
2022-11-23T19:13:45.573Z,3.88
2022-11-23T19:15:46.682Z,3.88
2022-11-23T19:17:48.250Z,3.88
2022-11-23T19:19:49.208Z,3.88
2022-11-23T19:23:51.373Z,3.88
2022-11-23T19:25:52.638Z,3.88
2022-11-23T19:27:53.674Z,3.88
2022-11-23T19:29:54.889Z,3.88
2022-11-23T19:31:56.180Z,3.88
2022-11-23T19:33:58.019Z,3.88
2022-11-23T19:35:59.356Z,3.88
2022-11-23T19:40:03.027Z,3.88
2022-11-23T19:42:04.718Z,3.88
2022-11-23T19:44:06.560Z,3.88
2022-11-23T19:46:08.044Z,3.88
2022-11-23T19:48:09.691Z,3.88
2022-11-23T19:50:11.531Z,3.88
2022-11-23T19:52:12.703Z,3.87
2022-11-23T19:56:15.758Z,3.87
2022-11-23T19:58:16.932Z,3.87
2022-11-23T20:00:18.141Z,3.87
2022-11-23T20:02:19.491Z,3.87
2022-11-23T20:04:21.425Z,3.87
2022-11-23T20:06:23.030Z,3.87
2022-11-23T20:08:24.139Z,3.87
2022-11-23T20:12:27.410Z,3.87
2022-11-23T20:14:28.474Z,3.87
2022-11-23T20:18:31.958Z,3.87
2022-11-23T20:20:33.226Z,3.87
2022-11-23T20:22:34.567Z,3.87
2022-11-23T20:24:36.155Z,3.87
2022-11-23T20:28:39.228Z,3.87
2022-11-23T20:30:40.883Z,3.87
2022-11-23T20:32:42.089Z,3.87
2022-11-23T20:34:44.066Z,3.87
2022-11-23T20:38:46.136Z,3.87
2022-11-23T20:40:47.735Z,3.87
2022-11-23T20:44:50.287Z,3.87
2022-11-23T20:47:03.231Z,3.86
2022-11-23T20:48:53.544Z,3.87
2022-11-23T20:50:54.934Z,3.86
2022-11-23T20:54:57.833Z,3.86
2022-11-23T20:56:59.494Z,3.86
2022-11-23T20:59:00.788Z,3.86
2022-11-23T21:01:02.682Z,3.86
2022-11-23T21:03:04.270Z,3.86
2022-11-23T21:05:05.207Z,3.86
2022-11-23T21:07:06.842Z,3.86
2022-11-23T21:11:10.012Z,3.86
2022-11-23T21:13:11.439Z,3.86
2022-11-23T21:15:13.051Z,3.86
2022-11-23T21:17:14.326Z,3.86
2022-11-23T21:19:15.320Z,3.86
2022-11-23T21:21:16.848Z,3.86
2022-11-23T21:23:18.584Z,3.86
2022-11-23T21:27:21.417Z,3.86
2022-11-23T21:29:23.395Z,3.86
2022-11-23T21:31:24.684Z,3.86
2022-11-23T21:33:26.478Z,3.86
2022-11-23T21:37:29.496Z,3.86
2022-11-23T21:39:30.613Z,3.86
2022-11-23T21:41:32.025Z,3.86
2022-11-23T21:43:33.825Z,3.86
2022-11-23T21:45:35.286Z,3.86
2022-11-23T21:47:37.006Z,3.86
2022-11-23T21:49:38.809Z,3.86
2022-11-23T21:53:41.491Z,3.86
2022-11-23T21:55:43.001Z,3.86
2022-11-23T21:57:44.412Z,3.86
2022-11-23T21:59:45.911Z,3.86
2022-11-23T22:01:47.883Z,3.86
2022-11-23T22:03:48.919Z,3.86
2022-11-23T22:05:50.834Z,3.86
2022-11-23T22:09:53.087Z,3.86
2022-11-23T22:11:54.252Z,3.86
2022-11-23T22:13:55.657Z,3.86
2022-11-23T22:15:57.377Z,3.86
2022-11-23T22:20:00.888Z,3.86
2022-11-23T22:22:02.528Z,3.85
2022-11-23T22:26:05.204Z,3.85
2022-11-23T22:28:06.181Z,3.86
2022-11-23T22:30:07.233Z,3.85
2022-11-23T22:32:08.404Z,3.85
2022-11-23T22:36:11.250Z,3.85
2022-11-23T22:38:12.584Z,3.86
2022-11-23T22:42:15.449Z,3.85
2022-11-23T22:44:17.149Z,3.85
2022-11-23T22:46:18.304Z,3.85
2022-11-23T22:48:19.455Z,3.85
2022-11-23T22:52:22.079Z,3.85
2022-11-23T22:54:23.496Z,3.85
2022-11-23T22:56:24.862Z,3.85
2022-11-23T22:58:26.284Z,3.85
2022-11-23T23:02:29.093Z,3.85
2022-11-23T23:04:31.041Z,3.85
2022-11-23T23:06:31.967Z,3.85
2022-11-23T23:08:33.546Z,3.85
2022-11-23T23:10:35.315Z,3.85
2022-11-23T23:12:37.093Z,3.85
2022-11-23T23:14:38.430Z,3.85
2022-11-23T23:18:40.905Z,3.84
2022-11-23T23:20:41.987Z,3.85
2022-11-23T23:22:43.117Z,3.85
2022-11-23T23:24:44.804Z,3.85
2022-11-23T23:26:46.195Z,3.85
2022-11-23T23:28:48.127Z,3.85
2022-11-23T23:30:50.068Z,3.85
2022-11-23T23:34:53.277Z,3.84
2022-11-23T23:36:55.031Z,3.84
2022-11-23T23:38:56.701Z,3.84
2022-11-23T23:40:58.355Z,3.84
2022-11-23T23:43:00.110Z,3.84
2022-11-23T23:45:01.262Z,3.84
2022-11-23T23:47:02.982Z,3.84
2022-11-23T23:51:05.960Z,3.84
2022-11-23T23:53:07.234Z,3.84
2022-11-23T23:55:08.456Z,3.84
2022-11-23T23:57:09.497Z,3.84
